Canistota, South Dakota
Current Conditions -  °F | °C
As of 4:56 PM on Saturday 20 Dec 2014 (Local Time) from KFSD Reporting Station
Haze Haze  
Wind Chill: -7°   Ceiling: 400
Heat Index: -1°   Visibility: 5mi
Dew Point: -2°   Wind: 13mph
Humidity: 92%   Direction: 160°SSE
Pressure: 30.02"   Gusts: NA
Location:  43.6°N, 97.29°W
Report Text: KFSD 202256Z 16011KT 5SM BR OVC004 M01/M02 A3002 RMK AO2 SLP183 T10111022
Loading
Personal Weather Stations






























Interactive Weather Map New forecast layout! Learn more

10-Day Weather Forecast

Advertisements
Track Severe Weather on mobile